createdAt,value
2019-05-26T00:00:31.893Z,2.10
2019-05-26T00:03:02.084Z,3.52
2019-05-26T00:05:45.327Z,2.05
2019-05-26T00:08:19.904Z,2.72
2019-05-26T00:10:50.318Z,6.40
2019-05-26T00:16:09.228Z,4.78
2019-05-26T00:18:39.205Z,3.25
2019-05-26T00:21:09.177Z,3.02
2019-05-26T00:23:39.139Z,4.87
2019-05-26T00:26:09.151Z,4.03
2019-05-26T00:28:39.121Z,2.83
2019-05-26T00:31:09.107Z,2.58
2019-05-26T00:33:39.205Z,2.77
2019-05-26T00:36:09.169Z,5.12
2019-05-26T00:38:39.290Z,4.95
2019-05-26T00:41:09.335Z,4.28
2019-05-26T00:43:43.623Z,6.92
2019-05-26T00:46:13.587Z,2.40
2019-05-26T00:48:48.261Z,2.27
2019-05-26T00:51:24.552Z,3.37
2019-05-26T00:53:50.217Z,2.62
2019-05-26T00:56:20.552Z,3.42
2019-05-26T00:58:50.576Z,4.65
2019-05-26T01:01:20.547Z,2.22
2019-05-26T01:03:50.530Z,2.25
2019-05-26T01:06:20.658Z,5.15
2019-05-26T01:08:50.712Z,4.30
2019-05-26T01:11:20.701Z,2.40
2019-05-26T01:13:50.729Z,5.87
2019-05-26T01:16:20.689Z,1.85
2019-05-26T01:18:50.679Z,4.40
2019-05-26T01:21:20.737Z,4.25
2019-05-26T01:23:50.777Z,2.45
2019-05-26T01:26:20.842Z,3.15
2019-05-26T01:28:51.130Z,6.28
2019-05-26T01:31:21.131Z,4.72
2019-05-26T01:33:51.180Z,4.72
2019-05-26T01:36:21.478Z,3.60
2019-05-26T01:38:52.407Z,5.35
2019-05-26T01:41:28.596Z,5.40
2019-05-26T01:44:00.688Z,5.75
2019-05-26T01:46:30.840Z,3.65
2019-05-26T01:49:05.672Z,5.33
2019-05-26T01:51:35.048Z,5.60
2019-05-26T01:54:05.255Z,4.95
2019-05-26T01:56:35.269Z,6.03
2019-05-26T01:59:13.825Z,6.70
2019-05-26T02:01:43.814Z,7.65
2019-05-26T02:04:13.872Z,6.85
2019-05-26T02:06:44.519Z,9.93
2019-05-26T02:09:14.557Z,8.03
2019-05-26T02:11:44.570Z,9.55
2019-05-26T02:14:14.830Z,9.90
2019-05-26T02:16:52.539Z,7.65
2019-05-26T02:19:22.606Z,5.53
2019-05-26T02:21:52.605Z,9.70
2019-05-26T02:24:22.746Z,7.95
2019-05-26T02:26:52.766Z,9.23
2019-05-26T02:29:22.827Z,9.78
2019-05-26T02:31:53.124Z,8.88
2019-05-26T02:34:23.588Z,7.50
2019-05-26T02:36:53.734Z,9.58
2019-05-26T02:39:24.787Z,8.20
2019-05-26T02:42:02.025Z,7.05
2019-05-26T02:44:32.976Z,8.50
2019-05-26T02:47:03.196Z,6.45
2019-05-26T02:49:35.303Z,6.58
2019-05-26T02:52:05.529Z,5.92
2019-05-26T02:54:35.514Z,5.53
2019-05-26T02:57:05.770Z,7.15
2019-05-26T02:59:40.626Z,6.25
2019-05-26T03:02:17.716Z,6.55
2019-05-26T03:04:47.727Z,9.88
2019-05-26T03:07:21.647Z,5.70
2019-05-26T03:09:53.492Z,6.03
2019-05-26T03:12:27.691Z,5.35
2019-05-26T03:14:59.518Z,7.03
2019-05-26T03:17:34.144Z,6.80
2019-05-26T03:20:06.470Z,7.78
2019-05-26T03:22:46.121Z,6.92
2019-05-26T03:25:15.692Z,6.50
2019-05-26T03:27:46.042Z,5.12
2019-05-26T03:30:16.447Z,4.80
2019-05-26T03:32:46.468Z,6.75
2019-05-26T03:35:16.589Z,5.75
2019-05-26T03:37:46.562Z,5.03
2019-05-26T03:40:16.777Z,4.42
2019-05-26T03:42:46.760Z,5.65
2019-05-26T03:45:43.556Z,5.70
2019-05-26T03:48:13.551Z,4.90
2019-05-26T03:50:43.725Z,3.75
2019-05-26T03:53:13.703Z,3.83
2019-05-26T03:55:47.571Z,5.42
2019-05-26T04:01:06.719Z,4.08
2019-05-26T04:03:37.402Z,4.80
2019-05-26T04:06:07.508Z,5.08
2019-05-26T04:08:37.694Z,4.65
2019-05-26T04:11:11.134Z,2.80
2019-05-26T04:13:41.055Z,5.12
2019-05-26T04:16:12.713Z,4.37
2019-05-26T04:18:42.869Z,3.15
2019-05-26T04:21:12.919Z,4.33
2019-05-26T04:23:42.951Z,3.58
2019-05-26T04:26:12.929Z,4.50
2019-05-26T04:28:43.093Z,3.65
2019-05-26T04:31:13.150Z,4.45
2019-05-26T04:33:43.139Z,4.55
2019-05-26T04:36:13.142Z,6.80
2019-05-26T04:38:43.132Z,4.35
2019-05-26T04:41:13.278Z,4.53
2019-05-26T04:43:43.326Z,3.87
2019-05-26T04:46:14.741Z,3.52
2019-05-26T04:48:44.863Z,4.30
2019-05-26T04:51:14.853Z,3.05
2019-05-26T04:53:44.841Z,6.40
2019-05-26T04:56:15.029Z,4.12
2019-05-26T04:58:46.722Z,2.87
2019-05-26T05:01:16.780Z,2.27
2019-05-26T05:03:46.912Z,3.05
2019-05-26T05:06:30.657Z,2.40
2019-05-26T05:09:00.658Z,2.52
2019-05-26T05:11:30.678Z,2.33
2019-05-26T05:14:05.650Z,5.15
2019-05-26T05:16:35.570Z,1.62
2019-05-26T05:19:05.635Z,5.00
2019-05-26T05:21:35.794Z,2.12
2019-05-26T05:24:10.777Z,2.87
2019-05-26T05:26:47.616Z,4.55
2019-05-26T05:29:19.070Z,3.55
2019-05-26T05:32:03.822Z,3.00
2019-05-26T05:34:21.169Z,2.65
2019-05-26T05:36:51.177Z,3.27
2019-05-26T05:39:35.800Z,3.40
2019-05-26T05:42:10.207Z,2.15
2019-05-26T05:44:40.143Z,3.22
2019-05-26T05:47:10.340Z,3.05
2019-05-26T05:49:47.443Z,2.08
2019-05-26T05:52:28.103Z,3.10
2019-05-26T05:54:58.946Z,2.02
2019-05-26T05:57:28.925Z,3.08
2019-05-26T05:59:58.925Z,1.40
2019-05-26T06:02:35.395Z,1.55
2019-05-26T06:05:14.162Z,1.62
2019-05-26T06:07:43.514Z,3.15
2019-05-26T06:10:14.370Z,1.52
2019-05-26T06:12:47.593Z,2.25
2019-05-26T06:18:12.266Z,2.02
2019-05-26T06:20:49.839Z,2.70
2019-05-26T06:23:19.773Z,0.80
2019-05-26T06:25:50.165Z,2.75
2019-05-26T06:28:20.195Z,1.95
2019-05-26T06:30:50.297Z,2.60
2019-05-26T06:33:20.283Z,1.90
2019-05-26T06:35:50.711Z,2.47
2019-05-26T06:38:20.910Z,1.75
2019-05-26T06:40:50.886Z,2.90
2019-05-26T06:43:21.002Z,2.83
2019-05-26T06:45:51.185Z,1.35
2019-05-26T06:48:26.997Z,1.92
2019-05-26T06:50:57.177Z,2.30
2019-05-26T06:53:27.368Z,2.47
2019-05-26T06:55:57.351Z,1.65
2019-05-26T06:58:27.479Z,2.60
2019-05-26T07:00:57.476Z,1.77
2019-05-26T07:03:28.983Z,1.75
2019-05-26T07:06:00.578Z,1.27
2019-05-26T07:08:30.571Z,1.72
2019-05-26T07:11:00.627Z,1.67
2019-05-26T07:13:30.621Z,2.75
2019-05-26T07:16:01.607Z,1.67
2019-05-26T07:18:31.707Z,1.25
2019-05-26T07:21:01.662Z,0.60
2019-05-26T07:23:31.950Z,1.17
2019-05-26T07:26:02.154Z,0.98
2019-05-26T07:28:32.376Z,12.25
2019-05-26T07:31:02.367Z,20.43
2019-05-26T07:33:32.441Z,20.40
2019-05-26T07:36:50.072Z,15.95
2019-05-26T07:44:17.445Z,10.60
2019-05-26T07:46:57.913Z,13.43
2019-05-26T07:49:47.100Z,11.65
2019-05-26T07:52:16.924Z,10.98
2019-05-26T07:54:53.029Z,5.28
2019-05-26T07:57:23.016Z,7.62
2019-05-26T07:59:53.056Z,9.00
2019-05-26T08:02:23.033Z,7.67
2019-05-26T08:05:02.675Z,12.40
2019-05-26T08:07:32.132Z,8.60
2019-05-26T08:10:02.160Z,9.10
2019-05-26T08:12:32.679Z,10.38
2019-05-26T08:15:02.658Z,8.55
2019-05-26T08:17:33.254Z,7.33
2019-05-26T08:20:06.893Z,6.45
2019-05-26T08:22:37.032Z,7.80
2019-05-26T08:25:08.816Z,8.30
2019-05-26T08:27:39.043Z,6.45
2019-05-26T08:30:11.169Z,4.22
2019-05-26T08:32:41.257Z,9.00
2019-05-26T08:35:11.577Z,11.10
2019-05-26T08:37:41.835Z,5.47
2019-05-26T08:40:20.933Z,8.13
2019-05-26T08:42:52.230Z,17.67
2019-05-26T08:45:23.324Z,29.42
2019-05-26T08:47:53.899Z,48.13
2019-05-26T08:50:23.958Z,55.70
2019-05-26T08:52:54.542Z,63.05
2019-05-26T08:55:25.135Z,61.85
2019-05-26T08:58:01.959Z,50.38
2019-05-26T09:00:32.233Z,62.90
2019-05-26T09:03:03.073Z,53.13
2019-05-26T09:05:33.202Z,56.02
2019-05-26T09:08:08.077Z,49.53
2019-05-26T09:10:37.040Z,40.25
2019-05-26T09:16:01.390Z,49.15
2019-05-26T09:18:31.421Z,52.45
2019-05-26T09:21:01.604Z,45.67
2019-05-26T09:23:40.291Z,34.92
2019-05-26T09:26:09.697Z,51.63
2019-05-26T09:28:39.787Z,40.03
2019-05-26T09:31:09.794Z,37.15
2019-05-26T09:33:39.795Z,44.65
2019-05-26T09:36:09.883Z,34.33
2019-05-26T09:38:39.907Z,39.42
2019-05-26T09:41:10.046Z,35.50
2019-05-26T09:43:40.043Z,37.83
2019-05-26T09:46:10.056Z,33.50
2019-05-26T09:48:40.866Z,33.67
2019-05-26T09:51:10.929Z,37.55
2019-05-26T09:53:40.933Z,29.70
2019-05-26T09:56:10.940Z,29.57
2019-05-26T09:58:41.066Z,37.42
2019-05-26T10:01:11.298Z,33.48
2019-05-26T10:03:41.505Z,24.57
2019-05-26T10:06:12.032Z,25.65
2019-05-26T10:08:42.489Z,26.52
2019-05-26T10:11:12.897Z,29.75
2019-05-26T10:13:43.777Z,23.25
2019-05-26T10:16:14.833Z,24.55
2019-05-26T10:18:45.333Z,17.30
2019-05-26T10:21:16.135Z,21.40
2019-05-26T10:23:46.700Z,20.50
2019-05-26T10:26:17.138Z,21.48
2019-05-26T10:28:47.761Z,27.17
2019-05-26T10:31:18.151Z,20.80
2019-05-26T10:33:48.623Z,22.55
2019-05-26T10:36:19.153Z,19.80
2019-05-26T10:38:49.584Z,20.82
2019-05-26T10:41:20.096Z,16.32
2019-05-26T10:43:50.628Z,19.85
2019-05-26T10:46:21.064Z,13.55
2019-05-26T10:48:51.490Z,17.52
2019-05-26T10:51:21.971Z,17.75
2019-05-26T10:53:52.342Z,18.67
2019-05-26T10:57:03.473Z,17.17
2019-05-26T10:59:38.769Z,17.37
2019-05-26T11:02:09.180Z,14.63
2019-05-26T11:04:39.664Z,16.17
2019-05-26T11:07:10.215Z,16.25
2019-05-26T11:09:40.625Z,12.43
2019-05-26T11:12:11.111Z,16.75
2019-05-26T11:14:41.637Z,14.30
2019-05-26T11:17:12.043Z,18.70
2019-05-26T11:19:42.456Z,15.78
2019-05-26T11:22:12.910Z,14.50
2019-05-26T11:24:43.331Z,15.60
2019-05-26T11:27:16.746Z,20.65
2019-05-26T11:29:47.261Z,11.43
2019-05-26T11:32:17.641Z,10.65
2019-05-26T11:35:00.716Z,13.55
2019-05-26T11:37:20.372Z,15.13
2019-05-26T11:39:50.415Z,13.45
2019-05-26T11:42:20.410Z,11.05
2019-05-26T11:44:50.408Z,14.00
2019-05-26T11:47:20.425Z,14.07
2019-05-26T11:49:50.454Z,16.32
2019-05-26T11:52:20.560Z,20.72
2019-05-26T11:54:50.683Z,16.10
2019-05-26T11:57:21.086Z,13.05
2019-05-26T11:59:51.163Z,11.93
2019-05-26T12:02:21.131Z,18.00
2019-05-26T12:04:53.178Z,20.45
2019-05-26T12:07:23.205Z,11.63
2019-05-26T12:09:53.608Z,10.72
2019-05-26T12:12:23.652Z,9.00
2019-05-26T12:14:53.697Z,10.32
2019-05-26T12:17:25.249Z,13.20
2019-05-26T12:19:55.339Z,13.08
2019-05-26T12:22:25.461Z,14.60
2019-05-26T12:24:55.466Z,7.15
2019-05-26T12:27:25.610Z,9.68
2019-05-26T12:29:55.613Z,9.08
2019-05-26T12:32:32.517Z,10.70
2019-05-26T12:35:14.830Z,8.63
2019-05-26T12:37:48.275Z,8.95
2019-05-26T12:40:18.022Z,9.60
2019-05-26T12:42:48.237Z,7.97
2019-05-26T12:45:19.689Z,12.70
2019-05-26T12:47:49.696Z,12.43
2019-05-26T12:50:19.871Z,7.35
2019-05-26T12:52:50.178Z,9.48
2019-05-26T12:55:20.256Z,12.98
2019-05-26T12:57:50.295Z,9.23
2019-05-26T13:00:20.802Z,9.18
2019-05-26T13:02:50.882Z,9.03
2019-05-26T13:05:21.992Z,12.00
2019-05-26T13:07:52.220Z,7.45
2019-05-26T13:10:25.139Z,9.15
2019-05-26T13:12:55.102Z,7.40
2019-05-26T13:15:25.854Z,7.15
2019-05-26T13:17:55.633Z,8.47
2019-05-26T13:20:25.842Z,7.40
2019-05-26T13:22:58.344Z,12.70
2019-05-26T13:25:28.466Z,6.53
2019-05-26T13:27:58.521Z,5.40
2019-05-26T13:30:29.039Z,7.85
2019-05-26T13:32:59.019Z,9.28
2019-05-26T13:35:29.251Z,5.28
2019-05-26T13:37:59.218Z,4.40
2019-05-26T13:40:29.783Z,8.28
2019-05-26T13:43:00.069Z,4.92
2019-05-26T13:45:30.035Z,4.40
2019-05-26T13:48:00.033Z,4.75
2019-05-26T13:50:30.067Z,4.58
2019-05-26T13:53:00.059Z,4.83
2019-05-26T13:55:30.036Z,5.92
2019-05-26T13:58:00.085Z,6.37
2019-05-26T14:00:30.529Z,4.78
2019-05-26T14:03:02.595Z,7.00
2019-05-26T14:05:32.724Z,4.53
2019-05-26T14:08:07.402Z,5.65
2019-05-26T14:10:38.681Z,5.80
2019-05-26T14:13:10.341Z,4.95
2019-05-26T14:15:40.832Z,5.78
2019-05-26T14:18:11.042Z,5.40
2019-05-26T14:20:42.504Z,4.33
2019-05-26T14:23:12.979Z,4.40
2019-05-26T14:25:42.975Z,6.45
2019-05-26T14:28:14.786Z,4.85
2019-05-26T14:30:44.952Z,6.62
2019-05-26T14:33:15.149Z,3.83
2019-05-26T14:35:45.186Z,3.00
2019-05-26T14:38:15.930Z,4.92
2019-05-26T14:40:47.566Z,4.30
2019-05-26T14:43:17.559Z,4.42
2019-05-26T14:45:53.301Z,4.62
2019-05-26T14:48:19.459Z,4.00
2019-05-26T14:50:49.635Z,4.28
2019-05-26T14:53:20.300Z,3.83
2019-05-26T14:55:50.472Z,3.33
2019-05-26T14:58:20.549Z,6.10
2019-05-26T15:00:50.587Z,7.33
2019-05-26T15:03:24.155Z,3.52
2019-05-26T15:06:05.445Z,6.75
2019-05-26T15:08:25.834Z,3.52
2019-05-26T15:10:56.056Z,4.50
2019-05-26T15:13:27.881Z,5.65
2019-05-26T15:16:09.314Z,3.52
2019-05-26T15:18:32.026Z,11.22
2019-05-26T15:21:02.100Z,3.20
2019-05-26T15:23:32.101Z,14.05
2019-05-26T15:26:05.365Z,11.65
2019-05-26T15:28:46.744Z,10.48
2019-05-26T15:31:16.805Z,10.48
2019-05-26T15:33:46.808Z,14.78
2019-05-26T15:36:17.013Z,13.90
2019-05-26T15:38:47.010Z,21.57
2019-05-26T15:41:17.209Z,10.53
2019-05-26T15:43:47.462Z,11.63
2019-05-26T15:46:25.203Z,10.00
2019-05-26T15:48:49.337Z,7.47
2019-05-26T15:51:19.881Z,14.15
2019-05-26T15:53:54.468Z,16.17
2019-05-26T15:56:24.591Z,15.93
2019-05-26T15:58:54.576Z,9.65
2019-05-26T16:01:24.661Z,12.95
2019-05-26T16:03:54.640Z,7.55
2019-05-26T16:06:24.715Z,12.15
2019-05-26T16:08:55.146Z,6.62
2019-05-26T16:11:27.629Z,9.63
2019-05-26T16:13:57.737Z,9.30
2019-05-26T16:16:40.280Z,9.58
2019-05-26T16:18:59.469Z,11.03
2019-05-26T16:21:35.341Z,5.80
2019-05-26T16:24:05.837Z,8.28
2019-05-26T16:26:37.768Z,11.75
2019-05-26T16:29:07.843Z,5.35
2019-05-26T16:31:37.910Z,7.47
2019-05-26T16:34:08.083Z,7.10
2019-05-26T16:36:38.069Z,7.50
2019-05-26T16:39:08.684Z,8.33
2019-05-26T16:41:39.370Z,7.53
2019-05-26T16:44:09.617Z,5.92
2019-05-26T16:46:39.632Z,5.53
2019-05-26T16:49:09.689Z,6.70
2019-05-26T16:51:39.658Z,4.67
2019-05-26T16:54:09.752Z,8.15
2019-05-26T16:56:54.027Z,94.92
2019-05-26T16:59:24.492Z,53.23
2019-05-26T17:01:54.658Z,29.75
2019-05-26T17:04:24.633Z,19.00
2019-05-26T17:06:54.672Z,16.90
2019-05-26T17:09:24.621Z,27.10
2019-05-26T17:11:55.285Z,25.27
2019-05-26T17:14:41.171Z,25.82
2019-05-26T17:17:15.322Z,26.80
2019-05-26T17:19:45.648Z,21.27
2019-05-26T17:22:15.770Z,25.10
2019-05-26T17:24:45.820Z,24.18
2019-05-26T17:27:15.820Z,16.60
2019-05-26T17:29:45.853Z,19.67
2019-05-26T17:32:20.155Z,15.48
2019-05-26T17:34:50.493Z,15.23
2019-05-26T17:37:20.500Z,19.17
2019-05-26T17:39:56.426Z,16.12
2019-05-26T17:42:30.591Z,13.38
2019-05-26T17:45:05.069Z,12.68
2019-05-26T17:47:55.851Z,11.55
2019-05-26T17:50:26.131Z,11.45
2019-05-26T17:52:56.135Z,13.20
2019-05-26T17:55:26.360Z,13.22
2019-05-26T17:57:56.353Z,11.65
2019-05-26T18:00:26.397Z,9.58
2019-05-26T18:02:56.924Z,12.28
2019-05-26T18:05:26.993Z,7.87
2019-05-26T18:07:56.988Z,8.88
2019-05-26T18:10:26.984Z,12.53
2019-05-26T18:12:58.856Z,6.97
2019-05-26T18:15:28.891Z,5.37
2019-05-26T18:17:59.474Z,8.83
2019-05-26T18:20:35.960Z,8.68
2019-05-26T18:23:01.479Z,11.55
2019-05-26T18:25:31.491Z,9.15
2019-05-26T18:28:01.527Z,6.00
2019-05-26T18:30:32.036Z,8.08
2019-05-26T18:33:02.221Z,6.60
2019-05-26T18:35:32.225Z,12.00
2019-05-26T18:38:02.562Z,11.03
2019-05-26T18:40:35.084Z,39.03
2019-05-26T18:43:05.151Z,43.00
2019-05-26T18:45:35.248Z,54.08
2019-05-26T18:48:06.387Z,46.05
2019-05-26T18:50:42.923Z,40.25
2019-05-26T18:53:08.672Z,43.40
2019-05-26T18:55:53.957Z,33.55
2019-05-26T18:58:11.114Z,29.75
2019-05-26T19:00:41.178Z,30.48
2019-05-26T19:03:31.720Z,33.78
2019-05-26T19:06:02.204Z,30.32
2019-05-26T19:11:26.870Z,33.95
2019-05-26T19:13:56.873Z,29.20
2019-05-26T19:16:27.753Z,27.73
2019-05-26T19:18:58.504Z,34.92
2019-05-26T19:21:28.538Z,33.08
2019-05-26T19:23:58.712Z,27.70
2019-05-26T19:26:28.852Z,41.85
2019-05-26T19:29:01.834Z,64.22
2019-05-26T19:31:31.837Z,79.05
2019-05-26T19:34:05.436Z,99.90
2019-05-26T19:36:35.493Z,125.87
2019-05-26T19:39:12.876Z,126.10
2019-05-26T19:41:42.966Z,132.27
2019-05-26T19:44:14.236Z,142.82
2019-05-26T19:46:47.859Z,146.28
2019-05-26T19:49:17.986Z,150.87
2019-05-26T19:51:49.430Z,137.57
2019-05-26T19:54:19.492Z,134.67
2019-05-26T19:56:49.877Z,138.47
2019-05-26T19:59:19.929Z,134.50
2019-05-26T20:01:49.958Z,125.55
2019-05-26T20:04:20.628Z,128.53
2019-05-26T20:06:56.833Z,127.65
2019-05-26T20:09:29.885Z,128.72
2019-05-26T20:12:00.418Z,130.90
2019-05-26T20:14:30.712Z,117.13
2019-05-26T20:17:00.788Z,121.97
2019-05-26T20:19:31.187Z,109.12
2019-05-26T20:22:01.171Z,102.58
2019-05-26T20:24:31.325Z,104.67
2019-05-26T20:27:08.452Z,110.50
2019-05-26T20:29:40.910Z,112.42
2019-05-26T20:32:22.888Z,107.35
2019-05-26T20:35:02.363Z,106.03
2019-05-26T20:37:34.713Z,97.50
2019-05-26T20:40:18.394Z,99.03
2019-05-26T20:42:48.526Z,102.92
2019-05-26T20:45:19.049Z,100.27
2019-05-26T20:47:49.045Z,91.08
2019-05-26T20:50:29.213Z,86.28
2019-05-26T20:52:54.288Z,85.25
2019-05-26T20:55:24.671Z,80.07
2019-05-26T20:57:54.705Z,83.40
2019-05-26T21:00:25.551Z,87.90
2019-05-26T21:02:55.696Z,72.60
2019-05-26T21:05:25.791Z,79.30
2019-05-26T21:07:55.803Z,82.27
2019-05-26T21:10:25.803Z,85.67
2019-05-26T21:12:55.890Z,76.17
2019-05-26T21:15:25.892Z,70.67
2019-05-26T21:17:55.966Z,67.17
2019-05-26T21:20:26.092Z,65.75
2019-05-26T21:22:56.083Z,72.25
2019-05-26T21:25:26.104Z,65.97
2019-05-26T21:27:56.206Z,59.80
2019-05-26T21:30:26.252Z,54.63
2019-05-26T21:32:56.324Z,59.93
2019-05-26T21:35:26.506Z,58.15
2019-05-26T21:37:56.567Z,48.68
2019-05-26T21:40:26.685Z,51.02
2019-05-26T21:42:56.679Z,50.25
2019-05-26T21:45:26.678Z,53.83
2019-05-26T21:47:56.709Z,52.17
2019-05-26T21:50:27.048Z,44.23
2019-05-26T21:52:57.060Z,51.60
2019-05-26T21:55:27.194Z,40.63
2019-05-26T21:57:59.082Z,40.28
2019-05-26T22:00:31.598Z,42.03
2019-05-26T22:03:01.849Z,36.83
2019-05-26T22:05:33.949Z,43.42
2019-05-26T22:08:04.091Z,34.50
2019-05-26T22:10:34.153Z,29.90
2019-05-26T22:13:04.289Z,38.45
2019-05-26T22:15:34.428Z,32.20
2019-05-26T22:18:04.908Z,37.63
2019-05-26T22:20:34.954Z,37.98
2019-05-26T22:23:05.006Z,38.63
2019-05-26T22:25:35.037Z,41.95
2019-05-26T22:28:07.089Z,44.35
2019-05-26T22:30:37.090Z,42.05
2019-05-26T22:33:07.113Z,40.73
2019-05-26T22:35:37.131Z,44.70
2019-05-26T22:38:07.198Z,36.38
2019-05-26T22:40:37.468Z,42.88
2019-05-26T22:43:07.780Z,42.53
2019-05-26T22:45:37.807Z,43.83
2019-05-26T22:48:08.206Z,44.77
2019-05-26T22:50:38.497Z,42.10
2019-05-26T22:53:08.513Z,42.67
2019-05-26T22:55:38.570Z,35.98
2019-05-26T22:58:08.567Z,35.52
2019-05-26T23:03:31.880Z,34.75
2019-05-26T23:06:02.365Z,40.55
2019-05-26T23:08:32.416Z,37.80
2019-05-26T23:11:09.441Z,32.67
2019-05-26T23:13:39.421Z,37.17
2019-05-26T23:16:09.600Z,32.67
2019-05-26T23:18:39.657Z,27.27
2019-05-26T23:21:14.346Z,32.20
2019-05-26T23:23:44.411Z,25.52
2019-05-26T23:26:14.449Z,30.90
2019-05-26T23:28:45.416Z,26.40
2019-05-26T23:31:15.708Z,25.30
2019-05-26T23:33:45.716Z,26.60
2019-05-26T23:36:15.944Z,25.68
2019-05-26T23:38:57.056Z,30.02
2019-05-26T23:41:27.421Z,29.37
2019-05-26T23:43:57.808Z,26.00
2019-05-26T23:46:27.815Z,28.30
2019-05-26T23:48:58.077Z,22.67
2019-05-26T23:51:28.094Z,26.15
2019-05-26T23:54:01.317Z,25.52
2019-05-26T23:56:31.332Z,25.15
2019-05-26T23:59:01.322Z,19.95
